Latest Weather Observations for Jervois

IDD60801

Issued at 5:31 pm CST Monday 23 October 2017 (issued every 30 minutes, with the page automatically refreshed every 10 minutes)

About weather observations | Map of weather stations | Latest weather observations for NT | Other Formats
Station Details ID: 015602 Name: JERVOIS Lat: -22.95 Lon: 136.14 Height: 328.0 m
Data from the previous 72 hours. | See also: Recent months at Jervois
Date/Time
CST
Temp
°C
App
Temp
°C
Dew
Point
°C
Rel
Hum
%
Delta-T
°C
Wind Press
QNH
hPa
Press
MSL
hPa
Rain since
9am
mm
Dir  Spd
km/h
Gust
km/h
Spd
kts
Gust
kts
23/05:30pm 31.2 25.6 -10.6 6 17.1 SE 13 20 7 11 1014.1 - 0.0
23/05:00pm 31.4 26.2 -10.4 6 17.2 SE 11 19 6 10 1013.9 - 0.0
23/04:30pm 31.3 25.4 -10.5 6 17.1 ESE 15 20 8 11 1013.8 - 0.0
23/04:00pm 31.9 26.2 -12.4 5 17.7 ESE 13 24 7 13 1013.9 - 0.0
23/03:30pm 32.3 27.0 -12.1 5 17.9 SE 11 17 6 9 1014.1 - 0.0
23/03:00pm 31.1 26.3 -10.7 6 17.0 WSW 9 19 5 10 1014.4 1012.9 0.0
23/02:30pm 30.9 25.2 -13.1 5 17.2 E 13 22 7 12 1014.6 - 0.0
23/02:00pm 31.4 26.2 -10.4 6 17.2 ESE 11 22 6 12 1015.1 - 0.0
23/01:30pm 30.7 25.6 -9.0 7 16.6 SSE 11 17 6 9 1015.6 - 0.0
23/01:00pm 29.9 25.3 -7.9 8 16.0 SSE 9 17 5 9 1016.1 - 0.0
23/12:30pm 29.5 24.5 -8.2 8 15.8 ESE 11 20 6 11 1016.7 - 0.0
23/12:00pm 29.0 22.8 -8.5 8 15.5 SSE 17 24 9 13 1017.2 1015.7 0.0
23/11:30am 28.1 22.4 -7.7 9 14.9 SSE 15 28 8 15 1017.7 - 0.0
23/11:00am 27.9 22.7 -6.5 10 14.6 SE 13 22 7 12 1018.2 - 0.0
23/10:30am 27.7 21.7 -6.6 10 14.5 E 17 22 9 12 1018.7 - 0.0
23/10:00am 26.8 20.5 -6.1 11 14.0 E 19 28 10 15 1019.2 - 0.0
23/09:30am 25.8 19.5 -5.7 12 13.3 E 19 26 10 14 1019.2 - 0.0
23/09:00am 24.9 18.4 -6.4 12 13.0 E 20 30 11 16 1019.3 1017.7 0.0
23/08:30am 24.2 17.9 -5.9 13 12.5 E 19 28 10 15 1019.0 - 0.0
23/08:00am 22.8 16.6 -5.2 15 11.7 E 19 26 10 14 1018.9 - 0.0
23/07:30am 20.4 15.3 -5.4 17 10.4 E 13 19 7 10 1018.5 - 0.0
23/07:00am 16.9 13.5 -5.5 21 8.7 SSE 4 7 2 4 1018.2 - 0.0
23/06:58am 16.6 13.7 -4.6 23 8.4 SSE 2 7 1 4 1018.2 - 0.0
23/06:30am 11.6 9.0 -5.4 30 6.3 CALM 0 0 0 0 1018.0 - 0.0
23/06:00am 11.0 7.2 -5.9 30 6.1 SSE 6 7 3 4 1017.4 1015.8 0.0
23/05:30am 11.0 7.0 -5.9 30 6.1 S 7 9 4 5 1017.0 - 0.0
23/05:00am 11.4 7.9 -6.4 28 6.4 S 4 7 2 4 1017.0 - 0.0
23/04:30am 12.3 8.8 -6.6 26 6.8 SSE 4 7 2 4 1016.6 - 0.0
23/04:00am 13.5 9.1 -6.1 25 7.3 SSE 9 11 5 6 1016.3 - 0.0
23/03:30am 13.3 9.4 -6.8 24 7.3 SSE 6 7 3 4 1016.3 - 0.0
23/03:00am 13.7 9.6 -6.5 24 7.4 SE 7 9 4 5 1016.3 1014.7 0.0
23/02:30am 14.6 10.2 -6.3 23 7.8 SSE 9 11 5 6 1016.7 - 0.0
23/02:00am 14.6 10.0 -7.4 21 8.0 SSE 9 11 5 6 1016.7 - 0.0
23/01:30am 15.0 10.8 -7.7 20 8.3 SSE 7 11 4 6 1016.9 - 0.0
23/01:00am 15.3 10.7 -7.5 20 8.4 SSE 9 11 5 6 1017.0 - 0.0
23/12:30am 15.1 10.9 -7.7 20 8.3 SSE 7 9 4 5 1017.3 - 0.0
23/12:00am 17.0 12.4 -8.2 17 9.3 SSE 9 11 5 6 1017.5 1016.0 0.0
 
Date/Time
CST
Temp
°C
App
Temp
°C
Dew
Point
°C
Rel
Hum
%
Delta-T
°C
Wind Press
QNH
hPa
Press
MSL
hPa
Rain since
9am
mm
Dir  Spd
km/h
Gust
km/h
Spd
kts
Gust
kts
22/11:30pm 17.1 12.9 -8.1 17 9.3 SSE 7 9 4 5 1017.6 - 0.0
22/11:00pm 19.2 14.5 -8.9 14 10.5 SE 9 11 5 6 1017.7 - 0.0
22/10:30pm 19.9 15.2 -9.3 13 10.9 SSE 9 11 5 6 1017.8 - 0.0
22/10:00pm 20.6 15.9 -8.7 13 11.1 SSE 9 11 5 6 1018.0 - 0.0
22/09:30pm 21.1 16.4 -9.4 12 11.5 SSE 9 13 5 7 1017.7 - 0.0
22/09:00pm 21.7 17.0 -8.9 12 11.7 SSE 9 11 5 6 1017.4 1015.9 0.0
22/08:30pm 22.0 17.3 -9.8 11 12.0 SE 9 11 5 6 1017.0 - 0.0
22/08:00pm 23.0 18.6 -10.2 10 12.6 SSE 7 9 4 5 1016.7 - 0.0
22/07:30pm 24.5 19.7 -10.4 9 13.4 SE 9 11 5 6 1016.4 - 0.0
22/07:00pm 26.3 21.0 -12.2 7 14.6 SSE 11 17 6 9 1016.2 - 0.0
22/06:30pm 27.8 22.2 -11.1 7 15.2 SSE 13 20 7 11 1015.9 - 0.0
22/06:00pm 29.3 22.5 -11.9 6 16.1 SSE 19 30 10 16 1015.5 1013.8 0.0
22/05:30pm 29.9 23.1 -11.5 6 16.4 SSE 19 32 10 17 1015.3 - 0.0
22/05:00pm 30.5 23.4 -13.3 5 17.0 SE 20 30 11 16 1015.0 - 0.0
22/04:30pm 30.8 23.1 -10.9 6 16.9 S 24 35 13 19 1014.9 - 0.0
22/04:00pm 30.4 23.1 -11.2 6 16.7 SE 22 37 12 20 1015.0 - 0.0
22/03:30pm 30.7 24.0 -10.9 6 16.8 SSE 19 35 10 19 1015.3 - 0.0
22/03:00pm 30.6 24.0 -9.1 7 16.5 E 19 30 10 16 1015.5 1014.0 0.0
22/02:30pm 30.5 23.3 -9.1 7 16.5 E 22 33 12 18 1015.8 - 0.0
22/02:00pm 29.8 23.0 -9.7 7 16.2 ESE 20 32 11 17 1016.5 - 0.0
22/01:30pm 29.2 22.1 -8.4 8 15.7 ESE 22 39 12 21 1016.9 - 0.0
22/01:00pm 29.7 23.4 -9.7 7 16.1 SSE 17 32 9 17 1017.4 - 0.0
22/12:30pm 28.4 22.2 -9.0 8 15.3 ESE 17 33 9 18 1018.1 - 0.0
22/12:00pm 27.9 21.4 -7.9 9 14.8 E 19 32 10 17 1018.6 1017.1 0.0
22/11:30am 27.5 20.9 -6.8 10 14.5 SSE 20 30 11 16 1019.2 - 0.0
22/11:00am 26.8 20.3 -6.1 11 14.0 ESE 20 32 11 17 1019.6 - 0.0
22/10:30am 26.4 20.2 -5.3 12 13.6 SSE 19 26 10 14 1019.8 - 0.0
22/10:00am 25.6 19.1 -5.9 12 13.3 ESE 20 28 11 15 1020.0 - 0.0
22/09:30am 24.5 18.0 -5.7 13 12.6 ESE 20 30 11 16 1020.3 - 0.0
22/09:00am 23.8 17.5 -4.4 15 12.0 ESE 20 28 11 15 1020.3 1018.8 0.0
22/08:30am 22.5 16.4 -3.7 17 11.2 SE 19 26 10 14 1020.4 - 0.0
22/08:00am 21.0 15.0 -2.8 20 10.2 SE 19 24 10 13 1020.1 - 0.0
22/07:30am 19.1 13.1 -3.1 22 9.3 SE 19 26 10 14 1019.9 - 0.0
22/07:00am 16.7 12.5 -3.9 24 8.3 S 9 13 5 7 1019.6 - 0.0
22/06:30am 13.9 10.0 -4.3 28 7.0 SSW 7 11 4 6 1019.4 - 0.0
22/06:00am 12.2 7.9 -4.8 30 6.4 SSW 9 11 5 6 1019.1 1017.5 0.0
22/05:30am 12.3 8.0 -4.8 30 6.4 SSW 9 11 5 6 1018.8 - 0.0
22/05:00am 12.7 8.8 -4.9 29 6.6 SSW 7 9 4 5 1018.5 - 0.0
22/04:30am 14.3 10.4 -4.4 27 7.3 S 7 11 4 6 1018.4 - 0.0
22/04:00am 14.9 11.1 -3.9 27 7.4 S 7 11 4 6 1018.4 - 0.0
22/03:30am 15.4 11.1 -4.5 25 7.8 S 9 13 5 7 1018.4 - 0.0
22/03:00am 16.3 12.0 -4.8 23 8.3 S 9 13 5 7 1018.5 1016.9 0.0
22/02:30am 17.0 12.7 -4.8 22 8.6 SSE 9 13 5 7 1018.6 - 0.0
22/02:00am 17.8 13.1 -5.4 20 9.1 SSE 11 13 6 7 1018.7 - 0.0
22/01:30am 18.8 13.6 -6.0 18 9.8 SSE 13 19 7 10 1018.8 - 0.0
22/01:00am 19.7 13.8 -6.0 17 10.2 SSE 17 28 9 15 1019.1 - 0.0
22/12:30am 19.7 13.8 -6.0 17 10.2 SSE 17 24 9 13 1019.3 - 0.0
22/12:00am 19.7 14.1 -6.0 17 10.2 SSE 15 24 8 13 1019.6 1018.1 0.0
 
Date/Time
CST
Temp
°C
App
Temp
°C
Dew
Point
°C
Rel
Hum
%
Delta-T
°C
Wind Press
QNH
hPa
Press
MSL
hPa
Rain since
9am
mm
Dir  Spd
km/h
Gust
km/h
Spd
kts
Gust
kts
21/11:30pm 19.7 14.6 -5.3 18 10.1 SSE 13 17 7 9 1019.8 - 0.0
21/11:00pm 20.2 15.1 -4.8 18 10.2 SSE 13 17 7 9 1019.8 - 0.0
21/10:30pm 20.2 15.6 -4.1 19 10.1 SSE 11 15 6 8 1020.0 - 0.0
21/10:00pm 20.9 16.6 -5.0 17 10.6 SSE 9 15 5 8 1019.8 - 0.0
21/09:30pm 21.7 17.0 -5.2 16 11.1 S 11 15 6 8 1019.6 - 0.0
21/09:00pm 22.4 17.6 -6.4 14 11.6 S 11 15 6 8 1019.3 1017.7 0.0
21/08:30pm 23.8 18.6 -6.2 13 12.4 SSE 13 17 7 9 1019.1 - 0.0
21/08:00pm 25.0 19.4 -6.3 12 13.0 SSE 15 20 8 11 1018.9 - 0.0
21/07:30pm 25.9 20.3 -6.8 11 13.6 SSE 15 24 8 13 1018.6 - 0.0
21/07:00pm 26.6 20.9 -7.5 10 14.1 SSE 15 22 8 12 1018.4 - 0.0
21/06:30pm 27.7 21.2 -8.0 9 14.8 SSE 19 28 10 15 1018.1 - 0.0
21/06:00pm 29.0 21.9 -8.5 8 15.5 SSE 22 33 12 18 1017.6 1016.1 0.0
21/05:30pm 29.7 23.0 -8.0 8 15.9 SSE 20 35 11 19 1017.4 - 0.0
21/05:00pm 29.9 22.8 -7.9 8 16.0 SSE 22 33 12 18 1017.3 - 0.0
21/04:30pm 30.2 23.5 -7.7 8 16.1 SSE 20 35 11 19 1017.3 - 0.0
21/04:00pm 30.8 23.6 -5.7 9 16.1 SSE 24 41 13 22 1017.3 - 0.0
21/03:30pm 30.8 23.9 -5.7 9 16.1 SSE 22 39 12 21 1017.5 - 0.0
21/03:00pm 30.5 22.9 -5.9 9 16.0 SE 26 37 14 20 1017.7 1016.2 0.0
21/02:30pm 31.1 23.9 -5.5 9 16.3 SSE 24 35 13 19 1018.2 - 0.0
21/02:00pm 30.2 22.3 -4.8 10 15.6 SSE 28 41 15 22 1018.5 - 0.0
21/01:30pm 30.0 23.0 -3.6 11 15.3 SSE 24 35 13 19 1019.0 - 0.0
21/01:00pm 30.4 23.4 -3.3 11 15.5 SSE 24 37 13 20 1019.6 - 0.0
21/12:30pm 29.1 22.5 -3.2 12 14.7 SE 22 41 12 22 1020.0 - 0.0
21/12:00pm 28.3 22.0 -0.8 15 13.7 SSE 22 41 12 22 1020.6 1019.1 0.0
21/11:30am 27.9 22.0 1.4 18 13.0 SE 22 44 12 24 1021.2 - 0.0
21/11:00am 27.2 21.8 2.3 20 12.3 SE 20 35 11 19 1021.6 - 0.0
21/10:30am 26.8 21.2 3.3 22 11.8 SE 22 39 12 21 1022.0 - 0.0
21/10:00am 25.8 19.6 4.3 25 10.9 SE 26 37 14 20 1022.3 - 0.0
21/09:30am 25.6 19.9 4.7 26 10.7 SE 24 35 13 19 1022.6 - 0.0
21/09:00am 24.8 19.4 4.5 27 10.3 SE 22 32 12 17 1022.7 1021.2 0.2
21/08:30am 23.7 17.8 4.1 28 9.8 SE 24 35 13 19 1022.6 - 0.2
21/08:00am 23.1 18.1 3.6 28 9.6 SE 19 30 10 16 1022.4 - 0.2
21/07:30am 21.7 17.3 4.7 33 8.5 SSE 17 26 9 14 1022.2 - 0.2
21/07:00am 20.7 18.0 7.3 42 7.0 S 11 20 6 11 1021.9 - 0.2
21/06:30am 19.2 17.6 8.8 51 5.5 SSE 7 13 4 7 1021.6 - 0.2
21/06:00am 18.4 16.9 8.4 52 5.2 SSE 6 9 3 5 1021.5 1019.8 0.2
21/05:30am 19.3 16.8 8.3 49 5.8 SSE 11 15 6 8 1021.2 - 0.2
21/05:00am 20.3 17.5 8.6 47 6.2 SSE 13 19 7 10 1020.9 - 0.2
21/04:30am 20.7 17.6 9.0 47 6.3 SSE 15 20 8 11 1020.6 - 0.2
21/04:00am 21.0 18.1 9.6 48 6.2 SSE 15 20 8 11 1020.4 - 0.2
21/03:30am 21.3 18.9 10.2 49 6.1 SSE 13 20 7 11 1020.4 - 0.2
21/03:00am 21.7 19.4 10.5 49 6.2 SSE 13 19 7 10 1020.3 1018.9 0.2
21/02:30am 22.3 19.6 10.5 47 6.6 SSE 15 26 8 14 1020.4 - 0.2
21/02:00am 22.5 20.3 10.9 48 6.5 SSE 13 20 7 11 1020.5 - 0.2
21/01:30am 23.0 20.2 11.4 48 6.6 SSE 17 26 9 14 1020.6 - 0.2
21/01:00am 23.0 20.9 12.3 51 6.2 SSE 15 20 8 11 1020.8 - 0.2
21/12:30am 23.4 21.6 13.3 53 5.9 SSE 15 22 8 12 1020.8 - 0.2
21/12:00am 23.7 22.4 14.7 57 5.4 SSE 15 22 8 12 1020.9 1019.4 0.2
 
Date/Time
CST
Temp
°C
App
Temp
°C
Dew
Point
°C
Rel
Hum
%
Delta-T
°C
Wind Press
QNH
hPa
Press
MSL
hPa
Rain since
9am
mm
Dir  Spd
km/h
Gust
km/h
Spd
kts
Gust
kts
20/11:30pm 24.0 25.6 19.1 74 3.2 SSE 9 13 5 7 1021.2 - 0.2
20/11:00pm 23.6 26.6 21.3 87 1.5 S 7 11 4 6 1021.4 - 0.2
20/10:30pm 23.8 26.9 21.5 87 1.5 S 7 9 4 5 1021.2 - 0.2
20/10:00pm 24.0 27.3 21.5 86 1.7 S 6 7 3 4 1020.9 - 0.2
20/09:30pm 23.9 27.3 21.6 87 1.5 S 6 9 3 5 1020.8 - 0.2
20/09:00pm 23.9 27.0 21.4 86 1.7 SSW 7 9 4 5 1020.6 1019.1 0.2
20/08:30pm 23.9 28.2 21.2 85 1.8 CALM 0 0 0 0 1020.2 - 0.2
20/08:00pm 23.8 28.4 21.7 88 1.4 CALM 0 6 0 3 1020.0 - 0.2
20/07:30pm 24.0 28.3 21.9 88 1.4 ENE 2 6 1 3 1019.6 - 0.2
20/07:00pm 23.9 25.2 21.6 87 1.5 ENE 17 22 9 12 1019.1 - 0.2
20/06:30pm 23.5 24.4 21.6 89 1.3 NE 19 26 10 14 1018.9 - 0.2
20/06:00pm 24.2 23.3 20.7 81 2.3 ENE 26 33 14 18 1018.8 1017.2 0.0

Other Formats:

Comma delimited format used in spreadsheet applications
http://www.bom.gov.au/fwo/IDD60801/IDD60801.94327.axf

JavaScript Object Notation format (JSON) in row-major order
http://www.bom.gov.au/fwo/IDD60801/IDD60801.94327.json